createdAt,value
2019-05-25T00:02:20.622Z,16.00
2019-05-25T00:04:50.144Z,15.90
2019-05-25T00:07:20.512Z,15.90
2019-05-25T00:09:50.541Z,15.90
2019-05-25T00:12:20.546Z,15.90
2019-05-25T00:14:50.466Z,15.90
2019-05-25T00:17:20.039Z,15.90
2019-05-25T00:19:49.854Z,15.80
2019-05-25T00:22:20.031Z,15.80
2019-05-25T00:24:50.148Z,15.90
2019-05-25T00:27:20.686Z,15.70
2019-05-25T00:29:50.717Z,15.70
2019-05-25T00:32:20.191Z,15.90
2019-05-25T00:34:50.958Z,15.60
2019-05-25T00:37:22.873Z,15.60
2019-05-25T00:39:53.123Z,15.50
2019-05-25T00:42:23.555Z,15.50
2019-05-25T00:44:53.278Z,15.50
2019-05-25T00:47:22.891Z,15.40
2019-05-25T00:49:52.734Z,15.40
2019-05-25T00:52:22.284Z,15.30
2019-05-25T00:54:51.712Z,15.30
2019-05-25T00:57:21.271Z,15.30
2019-05-25T00:59:51.561Z,15.20
2019-05-25T01:02:21.395Z,15.20
2019-05-25T01:04:51.665Z,15.10
2019-05-25T01:07:22.009Z,15.20
2019-05-25T01:09:51.822Z,15.10
2019-05-25T01:12:21.461Z,15.10
2019-05-25T01:14:51.000Z,15.10
2019-05-25T01:17:20.506Z,15.00
2019-05-25T01:19:50.424Z,15.00
2019-05-25T01:22:20.718Z,15.10
2019-05-25T01:24:50.590Z,14.90
2019-05-25T01:27:20.811Z,14.80
2019-05-25T01:29:50.949Z,14.80
2019-05-25T01:32:21.099Z,14.70
2019-05-25T01:34:51.387Z,14.70
2019-05-25T01:37:21.495Z,14.70
2019-05-25T01:39:52.075Z,14.60
2019-05-25T01:42:22.329Z,14.60
2019-05-25T01:44:52.504Z,14.50
2019-05-25T01:47:22.803Z,14.50
2019-05-25T01:49:52.485Z,14.70
2019-05-25T01:52:22.502Z,14.50
2019-05-25T01:54:59.876Z,14.50
2019-05-25T01:57:23.536Z,14.40
2019-05-25T01:59:53.298Z,14.40
2019-05-25T02:02:23.899Z,14.30
2019-05-25T02:04:54.234Z,14.30
2019-05-25T02:07:23.691Z,14.20
2019-05-25T02:09:53.571Z,14.20
2019-05-25T02:12:23.926Z,14.20
2019-05-25T02:14:53.440Z,14.20
2019-05-25T02:17:23.975Z,14.20
2019-05-25T02:19:53.745Z,14.10
2019-05-25T02:22:24.277Z,14.10
2019-05-25T02:24:53.869Z,14.20
2019-05-25T02:27:23.302Z,14.10
2019-05-25T02:29:53.593Z,14.10
2019-05-25T02:32:26.827Z,14.00
2019-05-25T02:34:57.548Z,14.00
2019-05-25T02:37:27.334Z,13.90
2019-05-25T02:39:57.474Z,13.90
2019-05-25T02:42:26.887Z,13.90
2019-05-25T02:44:56.728Z,13.80
2019-05-25T02:47:26.814Z,13.80
2019-05-25T02:49:57.174Z,13.80
2019-05-25T02:52:27.069Z,13.80
2019-05-25T02:54:57.911Z,13.80
2019-05-25T02:57:27.829Z,14.00
2019-05-25T02:59:57.410Z,13.80
2019-05-25T03:02:27.573Z,13.80
2019-05-25T03:04:57.012Z,13.90
2019-05-25T03:07:27.251Z,14.10
2019-05-25T03:09:59.031Z,14.30
2019-05-25T03:12:31.975Z,14.30
2019-05-25T03:15:02.047Z,14.20
2019-05-25T03:17:32.227Z,14.30
2019-05-25T03:20:02.366Z,14.40
2019-05-25T03:22:31.860Z,14.40
2019-05-25T03:25:01.673Z,14.30
2019-05-25T03:27:31.527Z,14.40
2019-05-25T03:30:01.870Z,14.50
2019-05-25T03:32:32.381Z,14.60
2019-05-25T03:35:01.898Z,14.90
2019-05-25T03:37:31.432Z,15.30
2019-05-25T03:40:01.604Z,15.60
2019-05-25T03:42:31.578Z,15.70
2019-05-25T03:45:01.064Z,16.00
2019-05-25T03:47:31.340Z,16.00
2019-05-25T03:50:01.886Z,16.10
2019-05-25T03:52:31.691Z,15.90
2019-05-25T03:55:01.581Z,15.80
2019-05-25T03:57:31.448Z,16.00
2019-05-25T04:00:02.124Z,16.00
2019-05-25T04:02:32.530Z,16.20
2019-05-25T04:05:02.477Z,16.20
2019-05-25T04:07:32.737Z,15.80
2019-05-25T04:10:02.755Z,15.80
2019-05-25T04:12:32.996Z,15.70
2019-05-25T04:15:02.665Z,16.00
2019-05-25T04:17:32.528Z,16.00
2019-05-25T04:20:02.443Z,16.10
2019-05-25T04:22:32.959Z,16.10
2019-05-25T04:25:02.889Z,16.00
2019-05-25T04:27:33.296Z,15.80
2019-05-25T04:30:03.991Z,16.00
2019-05-25T04:32:33.820Z,16.10
2019-05-25T04:35:03.779Z,16.20
2019-05-25T04:37:33.649Z,16.60
2019-05-25T04:40:03.999Z,16.40
2019-05-25T04:42:33.916Z,16.50
2019-05-25T04:45:04.468Z,16.40
2019-05-25T04:47:34.354Z,16.40
2019-05-25T04:50:04.039Z,16.80
2019-05-25T04:52:33.964Z,16.30
2019-05-25T04:55:04.997Z,16.00
2019-05-25T04:57:34.441Z,16.20
2019-05-25T05:00:05.052Z,16.20
2019-05-25T05:02:35.199Z,16.60
2019-05-25T05:05:05.506Z,16.40
2019-05-25T05:07:36.154Z,16.60
2019-05-25T05:10:06.948Z,17.10
2019-05-25T05:12:36.398Z,17.40
2019-05-25T05:15:07.099Z,17.40
2019-05-25T05:17:37.035Z,17.30
2019-05-25T05:20:08.653Z,17.60
2019-05-25T05:22:38.905Z,17.60
2019-05-25T05:25:09.663Z,18.00
2019-05-25T05:27:41.006Z,17.70
2019-05-25T05:30:15.072Z,17.50
2019-05-25T05:32:45.191Z,17.60
2019-05-25T05:35:15.614Z,17.40
2019-05-25T05:37:46.530Z,17.40
2019-05-25T05:40:16.967Z,17.10
2019-05-25T05:42:49.666Z,17.30
2019-05-25T05:45:19.746Z,17.20
2019-05-25T05:47:51.254Z,17.10
2019-05-25T05:50:21.071Z,17.00
2019-05-25T05:52:53.922Z,17.00
2019-05-25T05:55:30.958Z,17.10
2019-05-25T05:58:01.108Z,17.30
2019-05-25T06:00:31.467Z,17.50
2019-05-25T06:03:01.695Z,17.60
2019-05-25T06:05:31.615Z,17.60
2019-05-25T06:08:01.772Z,17.50
2019-05-25T06:10:31.625Z,17.60
2019-05-25T06:13:01.421Z,17.70
2019-05-25T06:15:31.323Z,17.70
2019-05-25T06:18:01.390Z,18.00
2019-05-25T06:20:31.298Z,18.00
2019-05-25T06:23:01.097Z,18.40
2019-05-25T06:25:30.630Z,18.20
2019-05-25T06:28:00.698Z,18.00
2019-05-25T06:30:31.308Z,18.00
2019-05-25T06:33:00.780Z,18.20
2019-05-25T06:35:30.635Z,18.30
2019-05-25T06:38:00.142Z,18.20
2019-05-25T06:40:29.855Z,18.40
2019-05-25T06:42:59.727Z,18.40
2019-05-25T06:45:30.158Z,18.50
2019-05-25T06:48:00.407Z,18.50
2019-05-25T06:50:30.976Z,18.60
2019-05-25T06:53:01.271Z,18.50
2019-05-25T06:55:31.073Z,18.30
2019-05-25T06:58:01.349Z,18.50
2019-05-25T07:00:31.652Z,18.60
2019-05-25T07:03:01.545Z,18.60
2019-05-25T07:05:31.401Z,18.90
2019-05-25T07:08:01.739Z,19.00
2019-05-25T07:10:31.995Z,19.10
2019-05-25T07:13:04.211Z,19.00
2019-05-25T07:15:34.088Z,19.10
2019-05-25T07:18:03.662Z,19.50
2019-05-25T07:20:33.783Z,19.70
2019-05-25T07:23:04.059Z,19.50
2019-05-25T07:25:33.995Z,19.60
2019-05-25T07:28:04.322Z,19.60
2019-05-25T07:30:34.599Z,19.50
2019-05-25T07:33:04.822Z,19.60
2019-05-25T07:35:34.735Z,19.80
2019-05-25T07:38:04.847Z,19.50
2019-05-25T07:40:35.149Z,19.50
2019-05-25T07:43:04.586Z,19.70
2019-05-25T07:45:34.089Z,19.80
2019-05-25T07:48:03.599Z,19.50
2019-05-25T07:50:35.501Z,19.70
2019-05-25T07:53:05.261Z,19.70
2019-05-25T07:55:35.560Z,19.70
2019-05-25T07:58:16.958Z,19.80
2019-05-25T08:00:37.525Z,20.10
2019-05-25T08:03:07.686Z,20.10
2019-05-25T08:05:38.018Z,20.30
2019-05-25T08:08:08.598Z,20.40
2019-05-25T08:10:38.911Z,20.50
2019-05-25T08:13:08.667Z,20.40
2019-05-25T08:15:39.378Z,20.60
2019-05-25T08:18:10.066Z,20.40
2019-05-25T08:20:40.172Z,20.60
2019-05-25T08:23:10.532Z,20.60
2019-05-25T08:25:40.051Z,20.80
2019-05-25T08:28:10.518Z,20.50
2019-05-25T08:30:40.422Z,20.60
2019-05-25T08:33:10.592Z,20.30
2019-05-25T08:35:40.031Z,20.40
2019-05-25T08:38:09.572Z,20.60
2019-05-25T08:40:39.434Z,20.90
2019-05-25T08:43:09.641Z,20.90
2019-05-25T08:45:39.513Z,20.90
2019-05-25T08:48:09.927Z,20.60
2019-05-25T08:50:40.083Z,20.50
2019-05-25T08:53:09.977Z,20.70
2019-05-25T08:55:40.238Z,20.90
2019-05-25T08:58:10.623Z,21.20
2019-05-25T09:00:40.174Z,21.60
2019-05-25T09:03:10.003Z,21.80
2019-05-25T09:05:40.273Z,22.00
2019-05-25T09:08:11.431Z,21.50
2019-05-25T09:10:42.010Z,21.40
2019-05-25T09:13:12.584Z,21.60
2019-05-25T09:15:42.783Z,21.80
2019-05-25T09:18:12.265Z,21.40
2019-05-25T09:20:41.994Z,21.70
2019-05-25T09:23:11.613Z,21.80
2019-05-25T09:25:41.626Z,21.90
2019-05-25T09:28:11.849Z,21.80
2019-05-25T09:30:42.046Z,21.40
2019-05-25T09:33:12.578Z,21.30
2019-05-25T09:35:41.977Z,21.70
2019-05-25T09:38:12.122Z,21.90
2019-05-25T09:40:41.973Z,22.20
2019-05-25T09:43:11.435Z,22.00
2019-05-25T09:45:41.298Z,22.30
2019-05-25T09:48:11.417Z,22.60
2019-05-25T09:50:41.271Z,22.40
2019-05-25T09:53:10.779Z,22.50
2019-05-25T09:55:40.691Z,22.70
2019-05-25T09:58:11.025Z,22.40
2019-05-25T10:00:40.690Z,22.60
2019-05-25T10:03:10.838Z,22.10
2019-05-25T10:05:41.017Z,22.00
2019-05-25T10:08:10.524Z,22.20
2019-05-25T10:10:40.066Z,22.30
2019-05-25T10:13:09.916Z,22.40
2019-05-25T10:15:40.416Z,22.70
2019-05-25T10:18:10.632Z,22.70
2019-05-25T10:20:40.831Z,22.70
2019-05-25T10:23:10.945Z,22.90
2019-05-25T10:25:41.091Z,23.00
2019-05-25T10:28:10.903Z,22.50
2019-05-25T10:30:41.142Z,22.20
2019-05-25T10:33:11.360Z,22.30
2019-05-25T10:35:41.803Z,22.70
2019-05-25T10:38:11.671Z,22.30
2019-05-25T10:40:42.813Z,22.20
2019-05-25T10:43:13.034Z,22.30
2019-05-25T10:45:42.562Z,22.80
2019-05-25T10:48:11.949Z,22.90
2019-05-25T10:50:41.441Z,23.00
2019-05-25T10:53:11.926Z,22.90
2019-05-25T10:55:41.437Z,22.40
2019-05-25T10:58:11.688Z,22.40
2019-05-25T11:00:41.515Z,22.60
2019-05-25T11:03:11.004Z,23.00
2019-05-25T11:05:41.192Z,23.10
2019-05-25T11:08:11.015Z,23.20
2019-05-25T11:10:40.960Z,23.60
2019-05-25T11:13:10.596Z,23.80
2019-05-25T11:15:40.973Z,23.10
2019-05-25T11:18:10.925Z,23.10
2019-05-25T11:20:40.364Z,23.10
2019-05-25T11:23:10.222Z,23.30
2019-05-25T11:25:40.404Z,23.50
2019-05-25T11:28:10.060Z,23.50
2019-05-25T11:30:40.150Z,23.50
2019-05-25T11:33:09.943Z,23.10
2019-05-25T11:35:39.858Z,23.10
2019-05-25T11:38:09.890Z,23.30
2019-05-25T11:40:40.017Z,22.70
2019-05-25T11:43:09.538Z,22.80
2019-05-25T11:45:39.102Z,22.90
2019-05-25T11:48:08.911Z,23.00
2019-05-25T11:50:38.402Z,23.30
2019-05-25T11:53:08.290Z,23.70
2019-05-25T11:55:38.805Z,23.70
2019-05-25T11:58:08.686Z,23.50
2019-05-25T12:00:38.378Z,23.70
2019-05-25T12:03:08.039Z,23.40
2019-05-25T12:05:37.518Z,23.80
2019-05-25T12:08:07.639Z,23.10
2019-05-25T12:10:37.717Z,23.00
2019-05-25T12:13:08.263Z,23.20
2019-05-25T12:15:38.789Z,23.30
2019-05-25T12:18:08.630Z,23.60
2019-05-25T12:20:38.560Z,23.70
2019-05-25T12:23:08.619Z,23.90
2019-05-25T12:25:38.970Z,24.20
2019-05-25T12:28:09.290Z,24.60
2019-05-25T12:30:41.197Z,23.80
2019-05-25T12:33:10.835Z,23.90
2019-05-25T12:35:40.363Z,23.90
2019-05-25T12:38:10.739Z,23.70
2019-05-25T12:40:53.169Z,23.70
2019-05-25T12:43:12.587Z,23.50
2019-05-25T12:45:42.468Z,23.50
2019-05-25T12:48:12.146Z,23.50
2019-05-25T12:50:41.946Z,24.00
2019-05-25T12:53:12.067Z,23.40
2019-05-25T12:55:41.592Z,23.30
2019-05-25T12:58:11.434Z,23.00
2019-05-25T13:00:55.195Z,23.00
2019-05-25T13:03:13.629Z,22.80
2019-05-25T13:05:43.100Z,22.90
2019-05-25T13:08:13.205Z,22.90
2019-05-25T13:10:43.362Z,23.00
2019-05-25T13:13:13.231Z,23.20
2019-05-25T13:15:43.369Z,23.10
2019-05-25T13:18:13.183Z,23.10
2019-05-25T13:20:43.130Z,23.00
2019-05-25T13:23:13.481Z,23.00
2019-05-25T13:25:43.355Z,23.10
2019-05-25T13:28:12.773Z,23.10
2019-05-25T13:30:43.001Z,23.20
2019-05-25T13:33:13.551Z,22.90
2019-05-25T13:35:44.003Z,23.30
2019-05-25T13:38:14.118Z,23.50
2019-05-25T13:40:43.579Z,23.50
2019-05-25T13:43:14.003Z,23.60
2019-05-25T13:45:45.989Z,23.90
2019-05-25T13:48:15.348Z,23.90
2019-05-25T13:50:45.626Z,23.20
2019-05-25T13:53:17.160Z,23.40
2019-05-25T13:55:47.553Z,23.20
2019-05-25T13:58:17.282Z,22.70
2019-05-25T14:00:47.486Z,22.80
2019-05-25T14:03:16.924Z,23.10
2019-05-25T14:05:46.383Z,23.10
2019-05-25T14:08:16.651Z,23.10
2019-05-25T14:10:46.097Z,23.00
2019-05-25T14:13:16.394Z,22.90
2019-05-25T14:15:47.459Z,22.90
2019-05-25T14:18:35.991Z,23.00
2019-05-25T14:21:06.002Z,22.60
2019-05-25T14:23:35.413Z,22.90
2019-05-25T14:26:05.795Z,22.80
2019-05-25T14:28:35.166Z,23.00
2019-05-25T14:31:05.428Z,23.00
2019-05-25T14:33:34.866Z,22.90
2019-05-25T14:36:05.158Z,23.00
2019-05-25T14:38:35.299Z,22.70
2019-05-25T14:41:05.772Z,22.50
2019-05-25T14:43:35.946Z,22.40
2019-05-25T14:46:05.858Z,22.40
2019-05-25T14:48:36.392Z,22.40
2019-05-25T14:51:05.953Z,22.70
2019-05-25T14:53:35.790Z,22.80
2019-05-25T14:56:06.187Z,22.80
2019-05-25T14:58:36.412Z,23.00
2019-05-25T15:01:06.013Z,22.80
2019-05-25T15:03:36.005Z,22.50
2019-05-25T15:06:06.083Z,22.50
2019-05-25T15:08:36.009Z,22.50
2019-05-25T15:11:05.862Z,22.50
2019-05-25T15:13:36.384Z,22.40
2019-05-25T15:16:06.156Z,22.50
2019-05-25T15:18:36.279Z,22.30
2019-05-25T15:21:06.923Z,22.20
2019-05-25T15:23:36.642Z,22.40
2019-05-25T15:26:06.601Z,22.60
2019-05-25T15:28:36.106Z,22.50
2019-05-25T15:31:05.965Z,22.70
2019-05-25T15:33:36.074Z,22.80
2019-05-25T15:36:06.438Z,22.80
2019-05-25T15:38:36.639Z,22.70
2019-05-25T15:41:06.135Z,22.90
2019-05-25T15:43:35.656Z,22.50
2019-05-25T15:46:05.256Z,22.10
2019-05-25T15:48:35.383Z,22.00
2019-05-25T15:51:05.095Z,22.20
2019-05-25T15:53:35.004Z,22.50
2019-05-25T15:56:04.920Z,22.30
2019-05-25T15:58:35.186Z,22.40
2019-05-25T16:01:05.642Z,22.40
2019-05-25T16:03:35.486Z,22.30
2019-05-25T16:06:05.010Z,22.50
2019-05-25T16:08:34.599Z,22.30
2019-05-25T16:11:04.455Z,22.20
2019-05-25T16:13:34.340Z,22.20
2019-05-25T16:16:04.358Z,22.40
2019-05-25T16:18:34.151Z,22.20
2019-05-25T16:21:04.010Z,22.20
2019-05-25T16:23:34.386Z,22.30
2019-05-25T16:26:04.834Z,22.30
2019-05-25T16:28:35.053Z,22.30
2019-05-25T16:31:05.167Z,22.30
2019-05-25T16:33:35.039Z,22.80
2019-05-25T16:36:04.902Z,22.70
2019-05-25T16:38:34.481Z,22.40
2019-05-25T16:41:04.108Z,22.40
2019-05-25T16:43:33.718Z,22.40
2019-05-25T16:46:03.662Z,22.20
2019-05-25T16:48:33.968Z,22.00
2019-05-25T16:51:03.769Z,22.10
2019-05-25T16:53:33.482Z,22.20
2019-05-25T16:56:04.068Z,22.60
2019-05-25T16:58:34.548Z,22.60
2019-05-25T17:01:04.486Z,22.80
2019-05-25T17:03:35.270Z,23.20
2019-05-25T17:06:04.727Z,23.10
2019-05-25T17:08:35.459Z,23.30
2019-05-25T17:11:05.470Z,23.10
2019-05-25T17:13:35.474Z,23.00
2019-05-25T17:16:05.623Z,23.20
2019-05-25T17:18:35.248Z,22.90
2019-05-25T17:21:04.725Z,22.20
2019-05-25T17:23:34.564Z,22.30
2019-05-25T17:26:05.249Z,21.60
2019-05-25T17:28:35.971Z,21.80
2019-05-25T17:31:05.598Z,21.80
2019-05-25T17:33:45.835Z,21.90
2019-05-25T17:36:07.947Z,21.80
2019-05-25T17:38:37.426Z,21.90
2019-05-25T17:41:07.549Z,21.60
2019-05-25T17:43:39.114Z,21.40
2019-05-25T17:46:08.981Z,21.50
2019-05-25T17:48:38.917Z,21.50
2019-05-25T17:51:09.024Z,21.00
2019-05-25T17:53:38.844Z,20.40
2019-05-25T17:56:08.558Z,20.20
2019-05-25T17:58:38.498Z,20.10
2019-05-25T18:01:08.768Z,20.30
2019-05-25T18:03:38.896Z,20.20
2019-05-25T18:06:08.708Z,20.00
2019-05-25T18:08:38.158Z,19.70
2019-05-25T18:11:08.018Z,19.40
2019-05-25T18:13:37.874Z,19.30
2019-05-25T18:16:08.111Z,19.10
2019-05-25T18:18:38.935Z,19.00
2019-05-25T18:21:08.871Z,18.90
2019-05-25T18:23:39.471Z,18.80
2019-05-25T18:26:09.288Z,18.60
2019-05-25T18:28:39.012Z,18.60
2019-05-25T18:31:09.553Z,18.50
2019-05-25T18:33:39.048Z,18.40
2019-05-25T18:36:27.559Z,18.30
2019-05-25T18:38:56.975Z,18.30
2019-05-25T18:41:26.758Z,18.20
2019-05-25T18:43:56.942Z,18.10
2019-05-25T18:46:26.759Z,18.10
2019-05-25T18:48:56.770Z,18.10
2019-05-25T18:51:27.059Z,18.00
2019-05-25T18:53:57.615Z,18.00
2019-05-25T18:56:27.109Z,17.90
2019-05-25T18:58:57.724Z,17.90
2019-05-25T19:01:27.616Z,17.80
2019-05-25T19:03:57.473Z,17.70
2019-05-25T19:06:27.708Z,17.60
2019-05-25T19:08:57.282Z,17.60
2019-05-25T19:11:27.203Z,17.50
2019-05-25T19:13:57.730Z,17.40
2019-05-25T19:16:27.566Z,17.40
2019-05-25T19:18:58.171Z,17.30
2019-05-25T19:21:28.022Z,17.40
2019-05-25T19:23:57.887Z,17.30
2019-05-25T19:26:28.147Z,17.30
2019-05-25T19:28:58.150Z,17.20
2019-05-25T19:31:27.987Z,17.10
2019-05-25T19:33:57.898Z,17.10
2019-05-25T19:36:27.825Z,17.00
2019-05-25T19:38:57.613Z,16.80
2019-05-25T19:41:27.831Z,16.90
2019-05-25T19:43:57.622Z,16.80
2019-05-25T19:46:27.439Z,16.80
2019-05-25T19:48:57.477Z,16.80
2019-05-25T19:51:26.948Z,16.70
2019-05-25T19:53:57.206Z,16.70
2019-05-25T19:56:27.204Z,16.60
2019-05-25T19:58:57.263Z,16.50
2019-05-25T20:01:27.842Z,16.60
2019-05-25T20:03:58.017Z,16.60
2019-05-25T20:06:27.534Z,16.40
2019-05-25T20:08:57.428Z,16.60
2019-05-25T20:11:27.654Z,16.40
2019-05-25T20:13:57.567Z,16.40
2019-05-25T20:16:27.450Z,16.20
2019-05-25T20:18:58.006Z,16.20
2019-05-25T20:21:27.964Z,16.00
2019-05-25T20:23:58.318Z,16.00
2019-05-25T20:26:28.580Z,16.00
2019-05-25T20:28:58.898Z,15.90
2019-05-25T20:31:28.778Z,16.00
2019-05-25T20:33:58.479Z,15.80
2019-05-25T20:36:28.112Z,15.70
2019-05-25T20:38:58.100Z,15.70
2019-05-25T20:41:27.576Z,15.70
2019-05-25T20:43:57.011Z,15.70
2019-05-25T20:46:26.843Z,15.60
2019-05-25T20:48:56.766Z,15.50
2019-05-25T20:51:26.533Z,15.50
2019-05-25T20:53:56.841Z,15.40
2019-05-25T20:56:26.659Z,15.50
2019-05-25T20:58:56.864Z,15.30
2019-05-25T21:01:26.351Z,15.30
2019-05-25T21:03:55.848Z,15.20
2019-05-25T21:06:25.655Z,15.20
2019-05-25T21:08:55.184Z,15.20
2019-05-25T21:11:25.388Z,14.90
2019-05-25T21:13:54.876Z,15.10
2019-05-25T21:16:24.790Z,15.00
2019-05-25T21:18:54.802Z,15.10
2019-05-25T21:21:24.714Z,15.00
2019-05-25T21:23:54.905Z,14.90
2019-05-25T21:26:24.838Z,14.90
2019-05-25T21:28:55.428Z,15.00
2019-05-25T21:31:25.028Z,14.80
2019-05-25T21:33:55.228Z,14.80
2019-05-25T21:36:25.312Z,14.90
2019-05-25T21:38:55.516Z,14.70
2019-05-25T21:41:24.976Z,14.60
2019-05-25T21:43:54.793Z,14.60
2019-05-25T21:46:25.162Z,14.60
2019-05-25T21:48:55.376Z,14.70
2019-05-25T21:51:25.223Z,14.50
2019-05-25T21:53:55.433Z,14.50
2019-05-25T21:56:25.355Z,14.30
2019-05-25T21:58:55.658Z,14.30
2019-05-25T22:01:25.203Z,14.30
2019-05-25T22:03:55.375Z,14.30
2019-05-25T22:06:25.012Z,14.20
2019-05-25T22:08:54.938Z,14.20
2019-05-25T22:11:25.060Z,14.20
2019-05-25T22:13:54.513Z,14.20
2019-05-25T22:16:24.669Z,14.10
2019-05-25T22:18:54.324Z,14.00
2019-05-25T22:21:24.106Z,14.00
2019-05-25T22:23:54.291Z,14.00
2019-05-25T22:26:24.449Z,13.90
2019-05-25T22:28:54.291Z,13.90
2019-05-25T22:31:24.136Z,13.90
2019-05-25T22:33:53.570Z,13.90
2019-05-25T22:36:37.197Z,13.80
2019-05-25T22:38:54.141Z,13.80
2019-05-25T22:41:24.641Z,13.80
2019-05-25T22:43:54.147Z,13.80
2019-05-25T22:46:24.007Z,13.90
2019-05-25T22:48:54.219Z,13.90
2019-05-25T22:51:24.511Z,14.00
2019-05-25T22:53:55.006Z,14.00
2019-05-25T22:56:25.394Z,13.90
2019-05-25T22:58:54.970Z,13.90
2019-05-25T23:01:24.414Z,13.90
2019-05-25T23:03:54.606Z,13.90
2019-05-25T23:06:24.263Z,13.90
2019-05-25T23:08:53.665Z,13.80
2019-05-25T23:11:23.212Z,13.80
2019-05-25T23:13:53.212Z,13.80
2019-05-25T23:16:23.119Z,13.80
2019-05-25T23:18:53.283Z,13.70
2019-05-25T23:21:23.218Z,13.70
2019-05-25T23:23:52.842Z,13.70
2019-05-25T23:26:22.732Z,13.60
2019-05-25T23:28:52.755Z,13.60
2019-05-25T23:31:23.036Z,13.40
2019-05-25T23:33:52.920Z,13.40
2019-05-25T23:36:23.302Z,13.30
2019-05-25T23:38:52.738Z,13.30
2019-05-25T23:41:23.016Z,13.20
2019-05-25T23:43:53.467Z,13.20
2019-05-25T23:46:22.967Z,13.10
2019-05-25T23:48:52.503Z,13.10
2019-05-25T23:51:22.014Z,13.10
2019-05-25T23:53:51.884Z,13.10
2019-05-25T23:56:21.803Z,13.00
2019-05-25T23:58:51.222Z,12.90
